To NAV CANADA Home Page Login to a new session Search on AWWS site Feedback and Comments Disclaimer Vers la page française équivalente Tips FAQ What's new on the site To the Forecasts and Observations / NOTAM section To "File a Flight Plan" website Publications and other links Update of the User's profile FIC Telephone Numbers My Weather Data Folder Route Weather Data Regional Weather Data Local Weather Data To the Forecasts and Observations / NOTAM section
Request Generated 04/17/2014 at 18:25:09 UTC . Weather information available at that time is displayed.

METAR/TAF

FREDERICTON/FREDERICTON INTL/NB    (show WxCam)

METAR CYFC 171800Z AUTO 06007KT 9SM CLR 04/M10 A3082 RMK SLP438=
METAR CYFC 171700Z AUTO 10007KT 080V140 9SM CLR 03/M11 A3084 RMK
SLP443=
METAR CYFC 171600Z AUTO VRB03KT 9SM CLR 02/M11 A3084 RMK SLP445=

TAF CYFC 171738Z 1718/1806 VRB03KT P6SM SKC
RMK FCST BASED ON AUTO OBS. NXT FCST BY 180000Z=
Your time UTC time
Weather data provided by Environment Canada and NAV CANADA